Time;durP1;ratioP1;P1;durP2;ratioP2;P2;SDS_P1;SDS_P2;PMS_P1;PMS_P2;Temp;Humidity;BMP_temperature;BMP_pressure;BME280_temperature;BME280_humidity;BME280_pressure;Samples;Min_cycle;Max_cycle;Signal;HPM_P1;HPM_P2
2022/11/07 05:05:12;;;;;;;0.63;0.63;;;11.90;99.90;;;;;;5331284;22;20241;-66
2022/11/07 05:07:38;;;;;;;0.90;0.90;;;11.90;99.90;;;;;;5054233;28;20420;-67
2022/11/07 05:10:05;;;;;;;1.37;1.17;;;11.80;99.90;;;;;;5051962;28;20183;-67
2022/11/07 05:12:31;;;;;;;1.77;0.97;;;11.80;99.90;;;;;;5040747;28;20454;-68
2022/11/07 05:14:57;;;;;;;1.00;1.00;;;11.80;99.90;;;;;;5039314;28;20495;-69
2022/11/07 05:17:23;;;;;;;1.10;1.00;;;11.80;99.90;;;;;;5034184;28;20634;-68
2022/11/07 05:19:49;;;;;;;2.63;1.83;;;11.80;99.90;;;;;;5034213;28;20411;-68
2022/11/07 05:24:59;;;;;;;0.80;0.80;;;11.80;99.90;;;;;;5033651;28;20209;-68
2022/11/07 05:27:24;;;;;;;1.00;1.00;;;11.70;99.90;;;;;;5033425;28;20428;-68
2022/11/07 05:29:50;;;;;;;3.20;0.70;;;11.70;99.90;;;;;;5034070;28;20179;-68
2022/11/07 05:32:16;;;;;;;0.90;0.90;;;11.60;99.90;;;;;;5033277;28;20267;-69
2022/11/07 05:34:42;;;;;;;2.90;0.70;;;11.50;99.90;;;;;;5032013;28;20678;-68
2022/11/07 05:37:10;;;;;;;0.50;0.50;;;11.50;99.90;;;;;;5033684;28;20179;-69
2022/11/07 05:39:36;;;;;;;0.90;0.90;;;11.50;99.90;;;;;;5015640;28;20586;-68
2022/11/07 05:42:02;;;;;;;2.73;1.07;;;11.40;99.90;;;;;;5033593;28;20216;-69
2022/11/07 05:44:28;;;;;;;2.20;1.25;;;11.40;99.90;;;;;;5015446;28;20213;-68
2022/11/07 05:46:56;;;;;;;1.00;1.00;;;11.40;99.90;;;;;;5033744;28;20233;-68
2022/11/07 05:49:22;;;;;;;1.00;1.00;;;11.30;99.90;;;;;;5033320;28;20545;-69
2022/11/07 05:51:48;;;;;;;1.38;1.30;;;11.30;99.90;;;;;;5033507;28;20175;-69
2022/11/07 05:54:14;;;;;;;1.00;1.00;;;11.30;99.90;;;;;;5015006;28;20217;-68
2022/11/07 05:56:42;;;;;;;3.43;1.70;;;11.30;99.90;;;;;;5033087;28;20746;-68
2022/11/07 05:59:08;;;;;;;2.38;1.55;;;11.30;99.90;;;;;;5033508;28;20171;-68
2022/11/07 06:01:34;;;;;;;3.03;1.10;;;11.40;99.90;;;;;;5015489;28;20186;-67
2022/11/07 06:03:59;;;;;;;1.13;1.00;;;11.40;99.90;;;;;;5032818;28;20671;-68
2022/11/07 06:06:25;;;;;;;1.47;1.40;;;11.50;99.90;;;;;;5033141;28;20650;-67
2022/11/07 06:08:50;;;;;;;2.67;1.50;;;11.50;99.90;;;;;;5033071;28;20172;-68
2022/11/07 06:11:16;;;;;;;2.10;0.93;;;11.50;99.90;;;;;;5033169;28;20203;-68
2022/11/07 06:13:42;;;;;;;2.20;1.20;;;11.60;99.90;;;;;;5032594;28;20200;-68
2022/11/07 06:16:07;;;;;;;1.00;0.70;;;11.70;99.90;;;;;;5033358;28;20253;-67
2022/11/07 06:18:36;;;;;;;2.63;1.67;;;11.70;99.90;;;;;;5032963;28;20170;-69
2022/11/07 06:21:02;;;;;;;1.03;0.97;;;11.80;99.90;;;;;;5033082;28;20913;-68
2022/11/07 06:23:27;;;;;;;1.63;1.23;;;11.90;99.90;;;;;;5031970;28;20399;-70
2022/11/07 06:25:53;;;;;;;1.80;0.93;;;11.90;99.90;;;;;;5013161;28;20418;-66
2022/11/07 06:28:18;;;;;;;1.33;1.07;;;12.00;99.90;;;;;;4995657;28;20218;-68
2022/11/07 06:30:44;;;;;;;1.80;1.00;;;12.00;99.90;;;;;;5012994;28;20168;-69
2022/11/07 06:33:15;;;;;;;0.73;0.73;;;12.00;99.90;;;;;;5030212;28;20194;-67
2022/11/07 06:35:40;;;;;;;0.77;0.67;;;12.00;99.90;;;;;;5015217;28;20208;-68
2022/11/07 06:38:10;;;;;;;1.23;1.13;;;12.00;99.90;;;;;;5032857;28;20409;-69
2022/11/07 06:40:37;;;;;;;0.80;0.80;;;11.90;99.90;;;;;;5033094;28;20230;-68
2022/11/07 06:43:14;;;;;;;0.90;0.90;;;11.90;99.90;;;;;;5014689;28;20591;-68
2022/11/07 06:45:41;;;;;;;1.07;1.07;;;11.90;99.90;;;;;;5032521;28;20437;-67
2022/11/07 06:48:07;;;;;;;1.10;0.80;;;11.90;99.90;;;;;;5016583;28;20855;-68
2022/11/07 06:50:34;;;;;;;0.97;0.80;;;11.90;99.90;;;;;;5036619;28;20464;-68
2022/11/07 06:53:10;;;;;;;1.50;0.90;;;12.00;99.90;;;;;;5036048;28;20423;-68
2022/11/07 06:55:36;;;;;;;2.57;1.20;;;12.00;99.90;;;;;;5018742;28;20484;-69
2022/11/07 06:58:03;;;;;;;1.40;0.88;;;12.00;99.90;;;;;;5036632;28;20418;-69
2022/11/07 07:00:33;;;;;;;0.90;0.90;;;12.10;99.90;;;;;;5036641;28;20185;-68
2022/11/07 07:02:58;;;;;;;4.27;0.90;;;12.20;99.90;;;;;;5014630;28;20480;-69
2022/11/07 07:05:24;;;;;;;3.97;2.33;;;12.20;99.90;;;;;;5035370;28;21053;-69
2022/11/07 07:07:49;;;;;;;2.40;1.00;;;12.30;99.90;;;;;;5009409;28;20188;-70
2022/11/07 07:10:15;;;;;;;1.53;0.70;;;12.40;99.90;;;;;;5036480;28;20200;-69
2022/11/07 07:12:41;;;;;;;1.17;1.07;;;12.40;99.90;;;;;;5036115;28;20532;-68
2022/11/07 07:15:07;;;;;;;4.23;1.20;;;12.50;99.90;;;;;;5017015;28;20907;-69
2022/11/07 07:17:33;;;;;;;8.27;3.20;;;12.60;99.90;;;;;;5034870;28;20443;-67
2022/11/07 07:19:58;;;;;;;2.03;0.90;;;12.70;99.90;;;;;;5034951;28;20447;-69
2022/11/07 07:22:24;;;;;;;3.00;0.77;;;12.80;99.90;;;;;;5035497;28;20177;-72
2022/11/07 07:24:52;;;;;;;0.90;0.90;;;13.00;99.90;;;;;;5035573;28;20222;-68
2022/11/07 07:27:19;;;;;;;1.40;0.97;;;13.20;99.90;;;;;;5017937;28;20645;-69
2022/11/07 07:29:45;;;;;;;1.07;1.00;;;13.30;99.90;;;;;;5018261;28;20847;-68
2022/11/07 07:32:11;;;;;;;0.90;0.90;;;13.50;99.90;;;;;;5036214;28;20865;-69
2022/11/07 07:34:37;;;;;;;1.20;0.87;;;13.70;99.90;;;;;;5034684;28;20550;-68
2022/11/07 07:37:02;;;;;;;1.00;1.00;;;13.80;99.90;;;;;;5035591;28;20169;-69
2022/11/07 07:39:28;;;;;;;2.40;1.10;;;14.00;99.90;;;;;;5036165;28;20680;-66
2022/11/07 07:41:53;;;;;;;0.77;0.77;;;14.00;99.90;;;;;;5036217;28;20166;-69
2022/11/07 07:44:19;;;;;;;2.00;0.77;;;14.00;99.90;;;;;;5035479;28;20546;-67
2022/11/07 07:46:44;;;;;;;1.30;0.97;;;14.00;99.90;;;;;;5036392;28;20180;-69
2022/11/07 07:49:10;;;;;;;0.90;0.90;;;14.00;99.90;;;;;;5035558;28;20174;-68
2022/11/07 07:51:36;;;;;;;2.50;1.10;;;14.00;99.90;;;;;;5035936;28;20640;-69
2022/11/07 07:54:01;;;;;;;10.37;1.30;;;14.00;99.90;;;;;;5017463;28;20340;-67
2022/11/07 07:56:27;;;;;;;0.80;0.80;;;14.20;99.90;;;;;;5035774;28;20166;-68
2022/11/07 07:58:52;;;;;;;1.60;1.37;;;14.40;99.90;;;;;;5034252;28;20167;-69
2022/11/07 08:01:18;;;;;;;1.17;1.03;;;14.50;99.90;;;;;;5035680;28;20608;-67
2022/11/07 08:03:44;;;;;;;1.43;0.80;;;14.70;99.90;;;;;;5034779;28;20264;-67
2022/11/07 08:06:09;;;;;;;0.90;0.90;;;14.90;99.90;;;;;;5035587;28;20546;-67
2022/11/07 08:08:35;;;;;;;0.93;0.90;;;15.00;99.90;;;;;;5035759;28;20170;-68
2022/11/07 08:11:03;;;;;;;1.80;1.00;;;15.30;99.90;;;;;;5035467;28;20172;-67
2022/11/07 08:13:29;;;;;;;1.80;0.97;;;15.50;99.90;;;;;;5034550;28;20179;-70
2022/11/07 08:15:56;;;;;;;0.80;0.77;;;15.80;99.90;;;;;;5035550;28;20458;-67
2022/11/07 08:18:22;;;;;;;1.13;1.13;;;15.90;99.90;;;;;;5035447;28;20375;-68
2022/11/07 08:20:53;;;;;;;1.57;1.03;;;15.90;99.90;;;;;;5035372;28;20417;-69
2022/11/07 08:23:19;;;;;;;0.90;0.90;;;15.80;99.90;;;;;;5034878;28;20418;-68
2022/11/07 08:25:53;;;;;;;1.80;0.93;;;15.70;99.90;;;;;;5035263;28;20411;-68
2022/11/07 08:28:21;;;;;;;5.10;1.73;;;15.60;99.90;;;;;;5034950;28;20430;-69
2022/11/07 08:31:04;;;;;;;6.17;1.33;;;15.50;99.90;;;;;;5035392;28;20403;-66
2022/11/07 08:33:30;;;;;;;3.43;1.20;;;15.40;99.90;;;;;;5034667;28;20414;-70
2022/11/07 08:35:59;;;;;;;1.27;0.70;;;15.30;99.90;;;;;;5034850;28;20430;-67
2022/11/07 08:38:25;;;;;;;2.43;2.23;;;15.20;99.90;;;;;;5035014;28;20369;-69
2022/11/07 08:40:51;;;;;;;1.40;1.17;;;15.10;99.90;;;;;;5034947;28;20408;-66
2022/11/07 08:43:17;;;;;;;8.80;2.43;;;15.00;99.90;;;;;;5034160;28;20740;-69
2022/11/07 08:45:44;;;;;;;0.83;0.70;;;14.90;99.90;;;;;;5034844;28;20409;-69
2022/11/07 08:48:10;;;;;;;1.20;1.10;;;14.80;99.90;;;;;;5034923;28;20413;-68
2022/11/07 08:50:35;;;;;;;1.53;1.43;;;14.70;99.90;;;;;;5034905;28;20401;-70
2022/11/07 08:53:01;;;;;;;1.37;1.03;;;14.60;99.90;;;;;;5034151;28;20237;-67
2022/11/07 08:55:26;;;;;;;1.43;1.10;;;14.60;99.90;;;;;;5034405;28;20210;-69
2022/11/07 08:57:58;;;;;;;1.07;1.07;;;14.60;99.90;;;;;;5034248;28;20264;-68
2022/11/07 09:00:24;;;;;;;0.90;0.60;;;14.60;99.90;;;;;;5034609;28;20174;-70
2022/11/07 09:02:49;;;;;;;1.50;1.40;;;14.70;99.90;;;;;;5033844;28;20419;-67
2022/11/07 09:05:15;;;;;;;1.50;1.40;;;14.70;99.90;;;;;;5034161;28;20214;-68
2022/11/07 09:07:40;;;;;;;2.67;0.97;;;14.80;99.90;;;;;;5035019;28;20171;-68
2022/11/07 09:10:06;;;;;;;3.60;1.23;;;14.90;99.90;;;;;;5033854;28;20170;-70
2022/11/07 09:12:32;;;;;;;0.70;0.70;;;15.00;99.90;;;;;;5033384;28;20215;-67
2022/11/07 09:14:57;;;;;;;2.53;1.43;;;15.00;99.90;;;;;;5034080;28;20477;-68
2022/11/07 09:17:23;;;;;;;0.90;0.90;;;15.10;99.90;;;;;;5034393;28;20616;-67
2022/11/07 09:19:48;;;;;;;3.20;0.97;;;15.30;99.90;;;;;;5016586;28;20171;-68
2022/11/07 09:22:14;;;;;;;0.93;0.87;;;15.50;99.90;;;;;;5034168;28;20234;-68
2022/11/07 09:24:40;;;;;;;2.43;1.10;;;15.60;99.90;;;;;;5033641;28;20231;-68
2022/11/07 09:27:05;;;;;;;1.57;1.10;;;15.60;99.90;;;;;;5033643;28;20176;-68
2022/11/07 09:29:31;;;;;;;2.13;1.10;;;15.80;99.90;;;;;;5034069;28;20544;-68
2022/11/07 09:31:56;;;;;;;2.80;1.00;;;15.80;99.90;;;;;;5034034;28;20174;-69
2022/11/07 09:34:22;;;;;;;1.10;1.00;;;15.90;99.90;;;;;;5033236;28;20205;-69
2022/11/07 09:36:47;;;;;;;1.57;0.80;;;15.80;99.90;;;;;;5033835;28;20628;-68
2022/11/07 09:39:13;;;;;;;3.23;1.00;;;15.70;99.90;;;;;;5016119;28;20231;-68
2022/11/07 09:42:04;;;;;;;1.03;1.03;;;15.80;99.90;;;;;;5033351;28;20185;-69
2022/11/07 09:44:46;;;;;;;2.73;1.10;;;15.80;99.90;;;;;;5033439;28;20204;-70
2022/11/07 09:47:18;;;;;;;0.77;0.77;;;15.80;99.90;;;;;;5033782;28;20423;-68
2022/11/07 09:49:59;;;;;;;3.17;1.03;;;15.80;99.90;;;;;;5033862;28;20386;-67
2022/11/07 09:52:39;;;;;;;3.03;2.30;;;15.70;99.90;;;;;;5033498;28;20901;-71
2022/11/07 09:55:22;;;;;;;6.23;2.30;;;15.70;99.90;;;;;;5013602;28;20882;-69
2022/11/07 09:57:49;;;;;;;1.10;0.97;;;15.70;99.90;;;;;;5013623;28;20406;-68
2022/11/07 10:00:16;;;;;;;3.67;1.10;;;15.70;99.90;;;;;;5015586;28;20395;-70
2022/11/07 10:02:54;;;;;;;2.20;1.03;;;15.60;99.90;;;;;;5032489;28;20393;-67
2022/11/07 10:05:43;;;;;;;2.10;0.87;;;15.70;99.90;;;;;;5033163;28;20520;-71
2022/11/07 10:08:50;;;;;;;1.07;0.80;;;15.70;99.90;;;;;;5033747;28;20493;-69
2022/11/07 10:11:46;;;;;;;1.93;0.90;;;15.70;99.90;;;;;;5033451;28;20406;-67
2022/11/07 10:14:27;;;;;;;0.97;0.80;;;15.60;99.90;;;;;;5032858;28;20442;-68
2022/11/07 10:17:31;;;;;;;4.47;1.33;;;15.70;99.90;;;;;;5032790;28;20433;-70
2022/11/07 10:20:11;;;;;;;0.80;0.70;;;15.70;99.90;;;;;;5012243;28;20558;-69
2022/11/07 10:22:58;;;;;;;0.80;0.80;;;15.70;99.90;;;;;;5014573;28;20444;-67
2022/11/07 10:25:34;;;;;;;0.80;0.80;;;15.70;99.90;;;;;;5033488;28;20426;-70
2022/11/07 10:28:05;;;;;;;1.37;1.00;;;15.70;99.90;;;;;;5033320;28;20393;-68
2022/11/07 10:30:32;;;;;;;1.27;0.90;;;15.70;99.90;;;;;;5032869;28;20418;-68
2022/11/07 10:33:06;;;;;;;0.80;0.80;;;15.80;99.90;;;;;;5032901;28;20774;-68
2022/11/07 10:35:40;;;;;;;1.67;1.27;;;15.70;99.90;;;;;;5032834;28;20458;-70
2022/11/07 10:38:39;;;;;;;2.57;0.90;;;15.70;99.90;;;;;;5033498;28;20871;-68
2022/11/07 10:41:13;;;;;;;1.23;0.90;;;15.80;99.90;;;;;;5011327;28;20784;-67
2022/11/07 10:43:40;;;;;;;2.20;1.00;;;15.80;99.90;;;;;;5032943;28;20429;-68
2022/11/07 10:46:14;;;;;;;3.03;0.80;;;15.90;99.90;;;;;;5014963;28;20411;-66
2022/11/07 10:48:55;;;;;;;3.40;0.97;;;16.00;99.90;;;;;;5033104;28;20409;-70
2022/11/07 10:51:32;;;;;;;0.60;0.60;;;16.10;99.90;;;;;;5033176;28;20484;-69
2022/11/07 10:53:57;;;;;;;1.80;0.80;;;16.30;99.90;;;;;;5032374;28;20451;-68
2022/11/07 10:56:23;;;;;;;0.83;0.77;;;16.30;99.90;;;;;;5033111;28;20994;-69
2022/11/07 10:58:48;;;;;;;1.10;0.83;;;16.40;99.90;;;;;;5032976;28;20181;-68
2022/11/07 11:01:25;;;;;;;0.90;0.90;;;16.50;99.90;;;;;;5033065;28;20175;-68
2022/11/07 11:03:52;;;;;;;0.90;0.80;;;16.50;99.90;;;;;;5032572;28;20191;-69
2022/11/07 11:06:17;;;;;;;1.27;1.17;;;16.50;99.90;;;;;;5032679;28;20425;-68
2022/11/07 11:08:44;;;;;;;1.43;0.90;;;16.50;99.90;;;;;;5032455;28;20424;-70
2022/11/07 11:11:16;;;;;;;2.33;0.90;;;16.40;99.90;;;;;;5032955;28;20636;-68
2022/11/07 11:13:42;;;;;;;3.30;1.33;;;16.50;99.90;;;;;;5032316;28;20424;-68
2022/11/07 11:16:23;;;;;;;1.20;1.10;;;16.60;99.90;;;;;;5032948;28;20472;-69
2022/11/07 11:18:59;;;;;;;3.07;0.90;;;16.80;99.90;;;;;;5033079;28;20166;-68
2022/11/07 11:21:36;;;;;;;1.23;1.00;;;16.90;99.90;;;;;;5032846;28;20905;-69
2022/11/07 11:24:24;;;;;;;1.37;1.27;;;17.00;99.90;;;;;;5013927;28;20435;-68
2022/11/07 11:26:52;;;;;;;0.90;0.90;;;17.10;99.90;;;;;;5032856;28;20402;-67
2022/11/07 11:29:35;;;;;;;2.97;2.30;;;17.20;99.90;;;;;;5032993;28;20411;-68
2022/11/07 11:32:02;;;;;;;0.87;0.87;;;17.40;99.90;;;;;;5032895;28;20458;-68
2022/11/07 11:34:54;;;;;;;2.60;1.20;;;17.50;99.90;;;;;;5034348;28;20452;-67
2022/11/07 11:37:26;;;;;;;1.00;0.90;;;17.70;99.90;;;;;;5035955;28;20464;-68
2022/11/07 11:39:58;;;;;;;1.10;0.93;;;17.80;99.90;;;;;;5002707;28;21006;-68
2022/11/07 11:42:34;;;;;;;1.13;1.13;;;17.80;99.90;;;;;;5036041;28;20416;-72
2022/11/07 11:45:27;;;;;;;2.00;1.00;;;17.70;99.90;;;;;;5036277;28;20444;-69
2022/11/07 11:48:05;;;;;;;0.80;0.80;;;17.60;99.90;;;;;;5018141;28;20421;-67
2022/11/07 11:50:44;;;;;;;1.90;1.17;;;17.50;99.90;;;;;;5036243;28;20404;-69
2022/11/07 11:53:16;;;;;;;1.07;0.90;;;17.60;99.90;;;;;;5035058;28;20439;-70
2022/11/07 11:55:56;;;;;;;1.27;1.00;;;17.60;99.90;;;;;;5018024;28;20530;-67
2022/11/07 11:58:35;;;;;;;1.10;1.00;;;17.50;99.90;;;;;;5035849;28;20376;-68
2022/11/07 12:01:13;;;;;;;3.23;1.03;;;17.50;99.90;;;;;;5035843;28;20741;-68
2022/11/07 12:03:57;;;;;;;0.70;0.70;;;17.40;99.90;;;;;;5034876;28;20449;-68
2022/11/07 12:06:36;;;;;;;1.70;0.80;;;17.50;99.90;;;;;;5034995;28;20421;-69
2022/11/07 12:09:28;;;;;;;0.80;0.80;;;17.40;99.90;;;;;;5035451;28;20405;-68
2022/11/07 12:12:18;;;;;;;1.50;1.33;;;17.40;99.90;;;;;;5035232;28;20500;-70
2022/11/07 12:15:19;;;;;;;1.80;0.60;;;17.40;99.90;;;;;;5017037;28;20547;-67
2022/11/07 12:17:48;;;;;;;1.17;1.07;;;17.30;99.90;;;;;;5035901;28;20400;-68
2022/11/07 12:20:31;;;;;;;1.07;0.97;;;17.20;99.90;;;;;;5035251;28;20768;-70
2022/11/07 12:23:17;;;;;;;0.80;0.80;;;17.10;99.90;;;;;;5034992;28;20443;-69
2022/11/07 12:26:24;;;;;;;1.53;0.90;;;17.00;99.90;;;;;;5035506;28;20397;-69
2022/11/07 12:29:25;;;;;;;2.23;1.20;;;17.00;99.90;;;;;;4994722;28;20431;-69
2022/11/07 12:31:58;;;;;;;1.70;1.43;;;17.00;99.90;;;;;;5015385;28;20377;-69
2022/11/07 12:35:16;;;;;;;2.67;0.90;;;17.00;99.90;;;;;;5014961;28;20449;-68
2022/11/07 12:38:06;;;;;;;1.80;0.60;;;17.00;99.90;;;;;;5015286;28;20409;-67
2022/11/07 12:40:52;;;;;;;0.80;0.70;;;17.10;99.90;;;;;;5015436;28;20512;-67
2022/11/07 12:43:36;;;;;;;3.80;0.93;;;17.10;99.90;;;;;;5032491;28;20417;-69
2022/11/07 12:46:26;;;;;;;2.37;0.87;;;17.10;99.90;;;;;;5034139;28;20378;-68
2022/11/07 12:49:06;;;;;;;0.70;0.70;;;17.10;99.90;;;;;;5034997;28;20428;-68
2022/11/07 12:51:41;;;;;;;1.37;1.03;;;17.10;99.90;;;;;;5034797;28;20828;-68
2022/11/07 12:54:36;;;;;;;1.53;0.97;;;17.10;99.90;;;;;;5034280;28;20868;-68
2022/11/07 12:57:08;;;;;;;1.13;0.80;;;17.20;99.90;;;;;;5032295;28;20735;-68
2022/11/07 12:59:37;;;;;;;2.73;1.13;;;17.30;99.90;;;;;;5016488;28;20797;-70
2022/11/07 13:02:29;;;;;;;2.13;0.90;;;17.30;99.90;;;;;;5023740;28;20432;-70
2022/11/07 13:04:54;;;;;;;1.23;1.10;;;17.30;99.90;;;;;;5021386;28;20484;-69
2022/11/07 13:07:30;;;;;;;5.33;1.63;;;17.20;99.90;;;;;;5029983;28;20437;-69
2022/11/07 13:10:05;;;;;;;4.40;1.70;;;17.20;99.90;;;;;;5021685;28;20593;-69
2022/11/07 13:12:39;;;;;;;3.10;0.90;;;17.00;99.90;;;;;;5033529;28;20431;-70
2022/11/07 13:15:07;;;;;;;0.67;0.67;;;17.00;99.90;;;;;;5033732;28;20462;-69
2022/11/07 13:17:46;;;;;;;2.70;1.20;;;17.00;99.90;;;;;;5032752;28;20514;-65
2022/11/07 13:20:20;;;;;;;2.17;1.73;;;16.80;99.90;;;;;;5033669;28;20522;-68
2022/11/07 13:22:48;;;;;;;3.80;2.80;;;16.70;99.90;;;;;;5033767;28;20409;-66
2022/11/07 13:25:13;;;;;;;3.23;1.57;;;16.70;99.90;;;;;;5033656;28;20453;-67
2022/11/07 13:28:00;;;;;;;1.40;1.07;;;16.70;99.90;;;;;;5034017;28;20508;-68
2022/11/07 13:30:29;;;;;;;1.40;1.30;;;16.70;99.90;;;;;;5032935;28;20193;-67
2022/11/07 13:32:55;;;;;;;1.00;1.00;;;16.80;99.90;;;;;;5034020;28;20915;-69
2022/11/07 13:35:24;;;;;;;0.70;0.70;;;16.90;99.90;;;;;;5021636;28;20487;-66
2022/11/07 13:38:08;;;;;;;1.60;0.70;;;17.00;99.90;;;;;;5033936;28;20422;-68
2022/11/07 13:40:36;;;;;;;1.50;0.70;;;17.10;99.90;;;;;;5033189;28;20962;-67
2022/11/07 13:43:16;;;;;;;2.77;1.10;;;17.10;99.90;;;;;;5033009;28;20415;-69
2022/11/07 13:45:44;;;;;;;1.73;0.80;;;17.20;99.90;;;;;;5033547;28;20428;-68
2022/11/07 13:48:39;;;;;;;1.03;0.90;;;17.20;99.90;;;;;;5033202;28;20483;-68
2022/11/07 13:51:11;;;;;;;0.63;0.63;;;17.10;99.90;;;;;;5015037;28;20458;-69
2022/11/07 13:53:54;;;;;;;1.00;1.00;;;17.10;99.90;;;;;;5033247;28;20428;-68
2022/11/07 13:56:42;;;;;;;2.23;1.30;;;17.00;99.90;;;;;;5033279;28;20431;-69
2022/11/07 13:59:19;;;;;;;1.23;0.93;;;16.90;99.90;;;;;;5033579;28;20469;-68
2022/11/07 14:01:45;;;;;;;2.07;1.30;;;16.80;99.90;;;;;;5020724;28;20425;-69
2022/11/07 14:04:16;;;;;;;2.40;1.00;;;16.70;99.90;;;;;;5014661;28;20451;-68
2022/11/07 14:06:42;;;;;;;4.00;3.00;;;16.60;99.90;;;;;;5014711;28;20198;-68
2022/11/07 14:09:13;;;;;;;7.40;3.10;;;16.60;99.90;;;;;;5033165;28;20456;-68
2022/11/07 14:11:39;;;;;;;3.23;1.00;;;16.50;99.90;;;;;;5015521;28;20415;-69
2022/11/07 14:14:06;;;;;;;2.10;1.13;;;16.50;99.90;;;;;;5032770;28;20469;-69
2022/11/07 14:16:32;;;;;;;1.60;1.03;;;16.50;99.90;;;;;;5033138;28;20450;-68
2022/11/07 14:19:14;;;;;;;5.80;0.83;;;16.50;99.90;;;;;;5033091;28;20861;-68
2022/11/07 14:21:43;;;;;;;2.07;1.10;;;16.40;99.90;;;;;;5033517;28;20178;-69
2022/11/07 14:24:27;;;;;;;1.33;1.10;;;16.40;99.90;;;;;;5032852;28;20984;-68
2022/11/07 14:27:13;;;;;;;1.00;0.90;;;16.40;99.90;;;;;;5033212;28;20423;-68
2022/11/07 14:29:49;;;;;;;2.23;1.10;;;16.40;99.90;;;;;;5033472;28;20405;-69
2022/11/07 14:32:15;;;;;;;0.70;0.70;;;16.40;99.90;;;;;;5033030;28;20490;-68
2022/11/07 14:34:46;;;;;;;1.50;1.37;;;16.40;99.90;;;;;;5014880;28;20457;-69
2022/11/07 14:37:18;;;;;;;2.33;1.20;;;16.40;99.90;;;;;;5033135;28;20500;-66
2022/11/07 14:39:44;;;;;;;1.17;0.83;;;16.30;99.90;;;;;;5033099;28;20429;-69
2022/11/07 14:42:17;;;;;;;1.60;1.50;;;16.30;99.90;;;;;;5033138;28;20410;-69
2022/11/07 14:44:49;;;;;;;1.70;1.10;;;16.20;99.90;;;;;;5015051;28;20464;-68
2022/11/07 14:47:18;;;;;;;2.53;1.13;;;16.10;99.90;;;;;;5032829;28;20446;-68
2022/11/07 14:49:46;;;;;;;1.03;0.80;;;16.00;99.90;;;;;;5015255;28;20942;-68
2022/11/07 14:52:21;;;;;;;6.10;4.20;;;15.90;99.90;;;;;;5033131;28;20480;-68
2022/11/07 14:54:48;;;;;;;6.20;4.30;;;15.90;99.90;;;;;;5031874;28;20463;-69
2022/11/07 14:57:14;;;;;;;3.67;2.30;;;15.90;99.90;;;;;;5032990;28;20896;-68
2022/11/07 14:59:40;;;;;;;1.33;1.23;;;15.90;99.90;;;;;;5014977;28;20456;-68
2022/11/07 15:02:12;;;;;;;1.50;1.40;;;15.80;99.90;;;;;;5032774;28;20404;-68
2022/11/07 15:04:43;;;;;;;3.33;0.97;;;15.80;99.90;;;;;;5014672;28;20445;-68
2022/11/07 15:07:12;;;;;;;0.70;0.70;;;15.80;99.90;;;;;;5033215;28;20471;-68
2022/11/07 15:09:39;;;;;;;3.57;1.97;;;15.80;99.90;;;;;;5035225;28;20421;-67
2022/11/07 15:12:15;;;;;;;1.03;1.03;;;15.80;99.90;;;;;;5018542;28;20470;-68
2022/11/07 15:14:40;;;;;;;1.80;0.90;;;15.80;99.90;;;;;;5035925;28;20461;-68
2022/11/07 15:17:17;;;;;;;1.27;0.90;;;15.70;99.90;;;;;;5036883;28;20467;-66
2022/11/07 15:19:57;;;;;;;1.77;0.77;;;15.70;99.90;;;;;;5036460;28;20535;-68
2022/11/07 15:22:40;;;;;;;0.80;0.80;;;15.60;99.90;;;;;;5036181;28;20417;-66
2022/11/07 15:25:34;;;;;;;3.13;1.33;;;15.60;99.90;;;;;;5033109;28;20471;-70
2022/11/07 15:28:27;;;;;;;1.37;0.83;;;15.50;99.90;;;;;;5035812;28;20424;-68
2022/11/07 15:30:55;;;;;;;5.00;2.57;;;15.50;99.90;;;;;;5036132;28;21715;-67
2022/11/07 15:33:22;;;;;;;4.47;2.70;;;15.40;99.90;;;;;;5035557;28;20753;-68
2022/11/07 15:35:52;;;;;;;2.00;1.47;;;15.30;99.90;;;;;;5029474;28;20543;-69
2022/11/07 15:38:26;;;;;;;4.37;1.67;;;15.30;99.90;;;;;;5028846;28;20410;-67
2022/11/07 15:40:52;;;;;;;1.87;1.70;;;15.20;99.90;;;;;;5035006;28;20776;-68
2022/11/07 15:43:18;;;;;;;0.90;0.90;;;15.20;99.90;;;;;;5034893;28;20413;-68
2022/11/07 15:45:45;;;;;;;5.60;1.30;;;15.10;99.90;;;;;;5035706;28;20415;-68
2022/11/07 15:48:22;;;;;;;3.50;1.00;;;15.00;99.90;;;;;;5035352;28;20508;-68
2022/11/07 15:50:50;;;;;;;1.23;1.10;;;15.00;99.90;;;;;;5035866;28;20432;-67
2022/11/07 15:53:26;;;;;;;2.80;1.67;;;15.00;99.90;;;;;;5035361;28;20765;-68
2022/11/07 15:55:53;;;;;;;1.70;1.27;;;15.00;99.90;;;;;;5035667;28;20486;-67
2022/11/07 15:58:22;;;;;;;0.80;0.80;;;15.00;99.90;;;;;;5035677;28;20411;-69
2022/11/07 16:00:48;;;;;;;4.60;1.17;;;14.90;99.90;;;;;;5035678;28;20413;-67
2022/11/07 16:03:17;;;;;;;3.93;1.40;;;14.90;99.90;;;;;;5035107;28;20415;-67
2022/11/07 16:05:47;;;;;;;1.87;1.60;;;14.80;99.90;;;;;;5035460;28;20429;-66
2022/11/07 16:08:15;;;;;;;2.53;1.40;;;14.80;99.90;;;;;;5035148;28;20402;-67
2022/11/07 16:10:47;;;;;;;1.43;0.90;;;14.80;99.90;;;;;;5035307;28;20430;-67
2022/11/07 16:13:13;;;;;;;2.10;1.00;;;14.70;99.90;;;;;;5034996;28;20871;-68
2022/11/07 16:15:43;;;;;;;2.17;1.10;;;14.70;99.90;;;;;;5017535;28;20530;-66
2022/11/07 16:18:14;;;;;;;1.47;1.10;;;14.60;99.90;;;;;;5035004;28;20427;-68
2022/11/07 16:20:39;;;;;;;1.57;1.57;;;14.60;99.90;;;;;;5034146;28;20767;-66
2022/11/07 16:23:05;;;;;;;1.47;1.37;;;14.50;99.90;;;;;;5035013;28;20396;-68
2022/11/07 16:25:31;;;;;;;1.30;1.20;;;14.40;99.90;;;;;;5035237;28;20732;-65
2022/11/07 16:27:59;;;;;;;1.37;1.23;;;14.30;99.90;;;;;;5035691;28;20231;-65
2022/11/07 16:30:25;;;;;;;1.60;1.50;;;14.20;99.90;;;;;;5035221;28;20181;-68
2022/11/07 16:32:50;;;;;;;1.10;0.80;;;14.20;99.90;;;;;;5034174;28;20933;-69
2022/11/07 16:35:16;;;;;;;0.80;0.80;;;14.10;99.90;;;;;;5034164;28;20457;-68
2022/11/07 16:37:42;;;;;;;4.43;1.30;;;14.00;99.90;;;;;;5034881;28;20177;-66
2022/11/07 16:40:12;;;;;;;1.20;1.10;;;13.90;99.90;;;;;;5034926;28;20180;-67
2022/11/07 16:42:38;;;;;;;0.93;0.93;;;13.70;99.90;;;;;;5035174;28;20181;-69
2022/11/07 16:45:04;;;;;;;3.60;1.73;;;13.60;99.90;;;;;;5036389;28;20466;-68
2022/11/07 16:47:36;;;;;;;1.00;1.00;;;13.50;99.90;;;;;;5035533;28;20258;-66
2022/11/07 16:50:03;;;;;;;1.90;1.00;;;13.40;99.90;;;;;;5035305;28;20416;-69
2022/11/07 16:52:28;;;;;;;2.77;1.70;;;13.30;99.90;;;;;;5036187;28;20403;-70
2022/11/07 16:54:54;;;;;;;2.10;1.23;;;13.20;99.90;;;;;;5037245;28;21027;-68
2022/11/07 16:57:23;;;;;;;1.53;1.40;;;13.10;99.90;;;;;;5016945;28;20173;-67
2022/11/07 16:59:51;;;;;;;1.70;1.60;;;13.10;99.90;;;;;;5034810;28;20166;-70
2022/11/07 17:02:21;;;;;;;1.10;1.00;;;13.00;99.90;;;;;;5034199;28;20420;-66
2022/11/07 17:04:47;;;;;;;1.90;1.00;;;13.00;99.90;;;;;;5033806;28;20800;-70
2022/11/07 17:07:14;;;;;;;2.30;1.57;;;12.90;99.90;;;;;;5034674;28;20415;-67
2022/11/07 17:09:43;;;;;;;1.50;1.40;;;12.80;99.90;;;;;;5034365;28;20412;-71
2022/11/07 17:12:17;;;;;;;4.43;1.77;;;12.70;99.90;;;;;;5034460;28;20894;-66
2022/11/07 17:14:43;;;;;;;1.20;1.20;;;12.70;99.90;;;;;;5033779;28;20450;-67
2022/11/07 17:17:11;;;;;;;1.07;0.90;;;12.60;99.90;;;;;;5033519;28;20925;-69
2022/11/07 17:19:37;;;;;;;30.70;16.23;;;12.60;99.90;;;;;;5033869;28;20780;-68
2022/11/07 17:22:04;;;;;;;15.27;7.80;;;12.60;99.90;;;;;;5034043;28;20390;-68
2022/11/07 17:24:33;;;;;;;4.20;3.57;;;12.50;99.90;;;;;;5032828;28;20976;-68
2022/11/07 17:26:58;;;;;;;4.47;2.13;;;12.60;99.90;;;;;;5033923;28;20481;-69
2022/11/07 17:29:25;;;;;;;2.33;1.87;;;12.50;99.90;;;;;;5015904;28;20451;-67
2022/11/07 17:31:50;;;;;;;3.77;2.10;;;12.50;99.90;;;;;;5032787;28;20227;-71
2022/11/07 17:34:16;;;;;;;5.30;2.27;;;12.50;99.90;;;;;;5022947;28;20459;-66
2022/11/07 17:36:45;;;;;;;2.47;1.83;;;12.50;99.90;;;;;;5029723;28;20519;-70
2022/11/07 17:39:15;;;;;;;5.07;3.20;;;12.50;99.90;;;;;;5025615;28;20529;-65
2022/11/07 17:41:42;;;;;;;2.67;2.30;;;12.50;99.90;;;;;;5033965;28;20438;-67
2022/11/07 17:44:08;;;;;;;2.70;2.10;;;12.40;99.90;;;;;;5033057;28;20443;-65
2022/11/07 17:46:35;;;;;;;3.53;1.60;;;12.40;99.90;;;;;;5033325;28;20425;-68
2022/11/07 17:49:03;;;;;;;2.43;2.23;;;12.40;99.90;;;;;;5033042;28;20423;-65
2022/11/07 17:51:29;;;;;;;2.23;1.97;;;12.30;99.90;;;;;;5033297;28;20420;-68
2022/11/07 17:53:56;;;;;;;2.33;2.10;;;12.30;99.90;;;;;;5014993;28;20437;-66
2022/11/07 17:56:29;;;;;;;3.57;2.60;;;12.20;99.90;;;;;;5033349;28;20510;-67
2022/11/07 17:58:57;;;;;;;3.30;2.97;;;12.20;99.90;;;;;;5033671;28;20399;-66
2022/11/07 18:01:29;;;;;;;2.90;2.57;;;12.20;99.90;;;;;;5033394;28;20735;-68
2022/11/07 18:03:54;;;;;;;4.60;3.20;;;12.10;99.90;;;;;;5015282;28;20430;-65
2022/11/07 18:06:22;;;;;;;2.53;2.07;;;12.10;99.90;;;;;;5033025;28;20438;-69
2022/11/07 18:08:51;;;;;;;2.45;2.25;;;12.00;99.90;;;;;;5015413;28;20167;-65
2022/11/07 18:11:18;;;;;;;1.53;1.37;;;12.00;99.90;;;;;;5032640;28;20182;-65
2022/11/07 18:13:44;;;;;;;2.37;1.53;;;12.00;99.90;;;;;;5033256;28;20431;-66